Time;durP1;ratioP1;P1;durP2;ratioP2;P2;SDS_P1;SDS_P2;PMS_P1;PMS_P2;Temp;Humidity;BMP_temperature;BMP_pressure;BME280_temperature;BME280_humidity;BME280_pressure;Samples;Min_cycle;Max_cycle;Signal;HPM_P1;HPM_P2
2022/12/26 00:02:13;;;;;;;12.00;7.77;;;7.40;99.90;;;;;;5014832;28;20176;-78
2022/12/26 00:04:39;;;;;;;10.00;7.70;;;7.40;99.90;;;;;;5014976;28;20192;-76
2022/12/26 00:07:05;;;;;;;10.83;8.13;;;7.30;99.90;;;;;;5016135;28;20820;-76
2022/12/26 00:09:32;;;;;;;9.07;7.70;;;7.30;99.90;;;;;;5016007;28;20251;-76
2022/12/26 00:11:58;;;;;;;11.97;7.70;;;7.30;99.90;;;;;;5016084;28;20192;-76
2022/12/26 00:14:23;;;;;;;13.70;8.50;;;7.30;99.90;;;;;;5015283;28;20447;-77
2022/12/26 00:16:49;;;;;;;12.73;7.50;;;7.30;99.90;;;;;;5015945;28;20621;-77
2022/12/26 00:19:15;;;;;;;10.40;8.00;;;7.20;99.90;;;;;;5014700;28;20176;-76
2022/12/26 00:21:40;;;;;;;7.27;6.40;;;7.20;99.90;;;;;;5014620;28;20283;-76
2022/12/26 00:24:08;;;;;;;11.23;8.40;;;7.30;99.90;;;;;;5014889;28;20188;-81
2022/12/26 00:26:35;;;;;;;10.20;7.80;;;7.30;99.90;;;;;;5015392;28;20175;-77
2022/12/26 00:29:01;;;;;;;13.47;7.97;;;7.30;99.90;;;;;;5015713;28;20434;-76
2022/12/26 00:31:30;;;;;;;13.00;9.17;;;7.30;99.90;;;;;;5015650;28;20443;-76
2022/12/26 00:33:56;;;;;;;8.77;7.37;;;7.30;99.90;;;;;;5015613;28;20473;-77
2022/12/26 00:36:26;;;;;;;8.57;7.33;;;7.30;99.90;;;;;;5014855;28;20883;-77
2022/12/26 00:38:51;;;;;;;12.37;8.10;;;7.30;99.90;;;;;;5015609;28;20172;-77
2022/12/26 00:41:19;;;;;;;11.50;7.87;;;7.30;99.90;;;;;;5015073;28;20895;-77
2022/12/26 00:43:45;;;;;;;16.70;8.60;;;7.30;99.90;;;;;;5015394;28;20633;-77
2022/12/26 00:46:11;;;;;;;13.00;7.70;;;7.30;99.90;;;;;;5014580;28;20479;-77
2022/12/26 00:48:37;;;;;;;10.63;9.13;;;7.20;99.90;;;;;;5015349;28;20404;-77
2022/12/26 00:51:03;;;;;;;12.17;7.67;;;7.20;99.90;;;;;;5015142;28;20823;-77
2022/12/26 00:53:29;;;;;;;16.97;8.57;;;7.20;99.90;;;;;;5015244;28;20165;-77
2022/12/26 00:55:55;;;;;;;15.30;8.40;;;7.20;99.90;;;;;;5014256;28;20433;-76
2022/12/26 00:58:21;;;;;;;14.97;9.60;;;7.20;99.90;;;;;;5014830;28;20167;-77
2022/12/26 01:00:47;;;;;;;12.07;8.43;;;7.10;99.90;;;;;;5015045;28;20230;-77
2022/12/26 01:03:14;;;;;;;15.50;8.33;;;7.10;99.90;;;;;;5015209;28;20382;-76
2022/12/26 01:05:50;;;;;;;13.33;8.50;;;7.10;99.90;;;;;;5014344;28;20822;-76
2022/12/26 01:08:17;;;;;;;14.13;8.80;;;7.10;99.90;;;;;;5014990;28;20899;-78
2022/12/26 01:10:45;;;;;;;14.07;9.63;;;7.20;99.90;;;;;;5014657;28;20990;-77
2022/12/26 01:13:11;;;;;;;16.63;9.10;;;7.10;99.90;;;;;;5014963;28;20874;-77
2022/12/26 01:15:36;;;;;;;21.73;9.33;;;7.10;99.90;;;;;;5013987;28;20539;-78
2022/12/26 01:18:03;;;;;;;29.60;9.97;;;7.20;99.90;;;;;;5014297;28;20641;-77
2022/12/26 01:20:29;;;;;;;13.73;8.90;;;7.10;99.90;;;;;;5014785;28;20168;-77
2022/12/26 01:22:55;;;;;;;18.33;9.43;;;7.10;99.90;;;;;;5014671;28;20404;-76
2022/12/26 01:25:22;;;;;;;17.00;10.80;;;7.20;99.90;;;;;;5014088;28;20419;-78
2022/12/26 01:27:47;;;;;;;15.00;8.67;;;7.10;99.90;;;;;;5014637;28;20411;-76
2022/12/26 01:30:13;;;;;;;13.70;8.80;;;7.10;99.90;;;;;;5014567;28;20537;-77
2022/12/26 01:32:39;;;;;;;14.53;8.23;;;7.10;99.90;;;;;;5014489;28;20572;-77
2022/12/26 01:35:05;;;;;;;22.27;8.63;;;7.10;99.90;;;;;;5013340;28;20188;-76
2022/12/26 01:37:30;;;;;;;17.50;9.00;;;7.10;99.90;;;;;;5014300;28;20199;-76
2022/12/26 01:39:56;;;;;;;17.30;8.17;;;7.20;99.90;;;;;;5014607;28;20453;-76
2022/12/26 01:42:24;;;;;;;19.00;7.70;;;7.10;99.90;;;;;;5013059;28;20665;-77
2022/12/26 01:45:01;;;;;;;24.97;8.10;;;7.20;99.90;;;;;;5013474;28;20188;-78
2022/12/26 01:47:45;;;;;;;23.93;8.30;;;7.20;99.90;;;;;;5014312;28;20428;-76
2022/12/26 01:50:42;;;;;;;13.40;7.73;;;7.20;99.90;;;;;;5014012;28;20467;-77
2022/12/26 01:53:23;;;;;;;17.83;7.57;;;7.20;99.90;;;;;;5012770;28;20450;-76
2022/12/26 01:56:00;;;;;;;15.03;7.40;;;7.10;99.90;;;;;;5013281;28;20438;-76
2022/12/26 01:58:34;;;;;;;17.70;7.00;;;7.00;99.90;;;;;;5014122;28;20427;-77
2022/12/26 02:01:03;;;;;;;10.77;7.33;;;7.00;99.90;;;;;;5013904;28;20412;-76
2022/12/26 02:06:14;;;;;;;16.47;7.13;;;7.10;99.90;;;;;;5013570;28;20445;-75
2022/12/26 02:08:42;;;;;;;14.63;6.63;;;7.10;99.90;;;;;;5012789;28;20418;-77
2022/12/26 02:11:21;;;;;;;8.97;6.30;;;7.00;99.90;;;;;;5013743;28;20501;-76
2022/12/26 02:13:47;;;;;;;13.40;6.20;;;7.00;99.90;;;;;;5013274;28;20401;-78
2022/12/26 02:16:16;;;;;;;13.60;6.40;;;7.10;99.90;;;;;;5013042;28;20804;-78
2022/12/26 02:18:42;;;;;;;9.30;6.30;;;7.10;99.90;;;;;;5013874;28;20629;-78
2022/12/26 02:21:32;;;;;;;8.70;6.10;;;7.20;99.90;;;;;;5012293;28;20464;-78
2022/12/26 02:24:09;;;;;;;11.77;5.50;;;7.20;99.90;;;;;;5013653;28;20434;-77
2022/12/26 02:26:59;;;;;;;10.57;5.73;;;7.20;99.90;;;;;;5013285;28;20409;-75
2022/12/26 02:29:52;;;;;;;6.93;6.20;;;7.20;99.90;;;;;;5013575;28;20406;-77
2022/12/26 02:32:18;;;;;;;7.73;5.30;;;7.30;99.90;;;;;;5013120;28;20558;-76
2022/12/26 02:34:49;;;;;;;6.57;5.67;;;7.30;99.90;;;;;;5012591;28;20855;-78
2022/12/26 02:37:49;;;;;;;7.73;5.00;;;7.30;99.90;;;;;;5013492;28;20168;-78
2022/12/26 02:40:29;;;;;;;5.03;4.60;;;7.40;99.90;;;;;;5013452;28;20505;-77
2022/12/26 02:43:13;;;;;;;6.57;5.13;;;7.40;99.90;;;;;;5013343;28;20395;-76
2022/12/26 02:48:35;;;;;;;6.73;5.67;;;7.40;1.00;;;;;;5013482;28;20974;-77
2022/12/26 03:14:37;;;;;;;12.80;7.33;;;7.30;1.00;;;;;;5012522;28;20418;-75
2022/12/26 03:17:20;;;;;;;20.10;7.93;;;7.30;1.00;;;;;;5013170;28;20411;-77
2022/12/26 03:20:00;;;;;;;9.77;6.90;;;7.30;1.00;;;;;;5013149;28;20400;-76
2022/12/26 03:22:47;;;;;;;14.97;8.53;;;7.30;1.00;;;;;;5013056;28;20410;-76
2022/12/26 03:28:13;;;;;;;15.90;8.73;;;7.30;1.00;;;;;;5012352;28;20450;-75
2022/12/26 03:30:48;;;;;;;13.43;7.53;;;7.30;1.00;;;;;;5013040;28;20451;-75
2022/12/26 03:36:05;;;;;;;13.17;8.40;;;7.40;1.00;;;;;;5016332;28;20406;-78
2022/12/26 03:38:49;;;;;;;13.70;7.70;;;7.40;1.00;;;;;;5016911;28;20403;-77
2022/12/26 04:20:44;;;;;;;13.00;6.73;;;7.50;1.00;;;;;;5015975;28;20429;-75
2022/12/26 04:46:26;;;;;;;17.07;8.60;;;7.50;1.00;;;;;;5014711;28;20407;-75
2022/12/26 04:51:38;;;;;;;16.90;9.03;;;7.50;1.00;;;;;;5015259;28;20494;-78
2022/12/26 04:54:04;;;;;;;14.70;8.77;;;7.50;1.00;;;;;;5014090;28;20462;-78
2022/12/26 04:56:29;;;;;;;14.83;8.37;;;7.50;1.00;;;;;;5014700;28;20415;-75
2022/12/26 04:58:55;;;;;;;14.37;7.47;;;7.50;1.00;;;;;;5015204;28;20426;-75
2022/12/26 05:09:34;;;;;;;15.70;9.30;;;7.40;1.00;;;;;;5014984;28;20417;-75
2022/12/26 05:12:06;;;;;;;22.20;8.87;;;7.40;1.00;;;;;;5014960;28;20509;-78
2022/12/26 05:14:34;;;;;;;13.33;7.97;;;7.40;1.00;;;;;;5014225;28;20808;-77
2022/12/26 05:30:49;;;;;;;18.63;9.03;;;7.40;1.00;;;;;;5014446;28;21012;-75
2022/12/26 05:35:58;;;;;;;17.87;8.47;;;7.40;1.00;;;;;;5013992;28;20199;-75
2022/12/26 05:38:24;;;;;;;20.83;9.80;;;7.40;1.00;;;;;;5014396;28;20400;-76
2022/12/26 05:40:49;;;;;;;17.80;9.40;;;7.40;1.00;;;;;;5013720;28;20176;-75
2022/12/26 05:43:17;;;;;;;15.57;9.43;;;7.40;1.00;;;;;;5014563;28;20538;-77
2022/12/26 05:45:43;;;;;;;20.10;9.00;;;7.40;1.00;;;;;;5012299;28;20206;-75
2022/12/26 05:48:08;;;;;;;11.97;8.00;;;7.40;1.00;;;;;;5014267;28;20415;-78
2022/12/26 05:50:34;;;;;;;13.93;8.53;;;7.40;1.00;;;;;;5014131;28;20204;-75
2022/12/26 05:53:00;;;;;;;14.00;8.80;;;7.50;1.00;;;;;;5014152;28;20672;-78
2022/12/26 05:55:26;;;;;;;33.30;9.43;;;7.50;1.00;;;;;;5012734;28;20192;-76
2022/12/26 05:57:52;;;;;;;21.77;10.20;;;7.50;1.00;;;;;;5013884;28;20247;-76
2022/12/26 06:00:18;;;;;;;14.43;8.30;;;7.50;1.00;;;;;;5013702;28;20487;-77
2022/12/26 06:02:43;;;;;;;16.93;9.23;;;7.50;1.00;;;;;;5013979;28;20176;-76
2022/12/26 06:05:09;;;;;;;19.63;7.80;;;7.50;1.00;;;;;;5013155;28;20702;-75
2022/12/26 06:07:35;;;;;;;17.43;7.77;;;7.60;1.00;;;;;;5013004;28;20176;-75
2022/12/26 06:10:00;;;;;;;14.93;8.57;;;7.60;1.00;;;;;;5013992;28;20545;-78
2022/12/26 06:12:26;;;;;;;13.93;8.53;;;7.60;1.00;;;;;;5013922;28;20168;-78
2022/12/26 06:14:52;;;;;;;19.10;9.50;;;7.60;1.00;;;;;;5013104;28;20247;-78
2022/12/26 06:17:18;;;;;;;12.37;8.07;;;7.50;1.00;;;;;;5013289;28;20199;-78
2022/12/26 06:19:43;;;;;;;14.03;8.10;;;7.50;1.00;;;;;;5013783;28;20521;-77
2022/12/26 06:22:10;;;;;;;15.60;8.57;;;7.50;1.00;;;;;;5013682;28;20178;-76
2022/12/26 06:24:35;;;;;;;16.03;8.30;;;7.50;1.00;;;;;;5013079;28;20192;-78
2022/12/26 06:27:01;;;;;;;16.43;8.63;;;7.50;1.00;;;;;;5013622;28;20414;-78
2022/12/26 06:29:27;;;;;;;12.93;7.67;;;7.50;1.00;;;;;;5013641;28;20172;-77
2022/12/26 06:31:52;;;;;;;12.10;7.53;;;7.60;1.00;;;;;;5013602;28;20199;-75
2022/12/26 06:34:18;;;;;;;13.77;7.37;;;7.50;1.00;;;;;;5012851;28;20192;-76
2022/12/26 06:36:44;;;;;;;15.13;7.50;;;7.60;1.00;;;;;;5012949;28;20161;-78
2022/12/26 06:39:09;;;;;;;11.80;7.53;;;7.70;1.00;;;;;;5012287;28;20625;-71
2022/12/26 06:41:35;;;;;;;10.70;6.73;;;7.70;1.00;;;;;;5013453;28;20207;-70
2022/12/26 06:44:01;;;;;;;12.00;6.93;;;7.70;1.00;;;;;;5011978;28;20553;-71
2022/12/26 06:46:27;;;;;;;12.63;7.97;;;7.70;1.00;;;;;;5011565;28;20179;-76
2022/12/26 06:48:53;;;;;;;13.93;9.33;;;7.70;1.00;;;;;;5013380;28;20708;-77
2022/12/26 06:51:22;;;;;;;15.70;7.17;;;7.70;1.00;;;;;;5013182;28;20455;-76
2022/12/26 06:53:49;;;;;;;8.83;7.40;;;7.60;1.00;;;;;;5011969;28;20505;-78
2022/12/26 06:56:24;;;;;;;15.90;8.17;;;7.60;1.00;;;;;;5012220;28;20490;-77
2022/12/26 06:58:54;;;;;;;11.97;8.30;;;7.70;1.00;;;;;;5013281;28;20407;-76
2022/12/26 07:01:21;;;;;;;11.27;6.53;;;7.70;1.00;;;;;;5013148;28;20426;-76
2022/12/26 07:03:47;;;;;;;15.40;7.83;;;7.70;1.00;;;;;;5013144;28;20430;-76
2022/12/26 07:06:22;;;;;;;15.63;8.17;;;7.70;1.00;;;;;;5013071;28;20415;-76
2022/12/26 07:08:48;;;;;;;14.50;8.00;;;7.70;1.00;;;;;;5017217;28;20402;-76
2022/12/26 07:11:22;;;;;;;13.27;7.53;;;7.70;1.00;;;;;;5017245;28;20443;-77
2022/12/26 07:13:48;;;;;;;18.57;9.20;;;7.70;1.00;;;;;;5016439;28;20503;-75
2022/12/26 07:16:14;;;;;;;11.00;8.00;;;7.70;1.00;;;;;;5016462;28;20478;-75
2022/12/26 07:18:40;;;;;;;12.30;7.00;;;7.70;1.00;;;;;;5017145;28;20195;-75
2022/12/26 07:21:11;;;;;;;13.80;8.37;;;7.80;1.00;;;;;;5016066;28;20442;-75
2022/12/26 07:23:36;;;;;;;10.63;6.77;;;7.80;1.00;;;;;;5016740;28;20403;-77
2022/12/26 07:26:02;;;;;;;10.47;6.33;;;7.80;1.00;;;;;;5016315;28;20415;-76
2022/12/26 07:28:28;;;;;;;14.27;8.50;;;7.80;1.00;;;;;;5015644;28;20172;-76
2022/12/26 07:30:54;;;;;;;8.73;7.37;;;7.80;1.00;;;;;;5016518;28;20876;-77
2022/12/26 07:33:20;;;;;;;12.10;6.83;;;7.80;1.00;;;;;;5016508;28;20251;-77
2022/12/26 07:35:46;;;;;;;12.63;7.60;;;7.80;1.00;;;;;;5015953;28;20420;-76
2022/12/26 07:38:12;;;;;;;10.73;7.83;;;7.80;1.00;;;;;;5016674;28;20953;-76
2022/12/26 07:40:37;;;;;;;10.87;7.10;;;7.80;1.00;;;;;;5016750;28;20169;-77
2022/12/26 07:43:03;;;;;;;11.33;8.33;;;7.80;1.00;;;;;;5016564;28;20773;-77
2022/12/26 07:45:29;;;;;;;11.60;8.10;;;7.90;1.00;;;;;;5014602;28;20314;-76
2022/12/26 07:47:57;;;;;;;12.20;8.63;;;7.80;1.00;;;;;;5016155;28;20176;-77
2022/12/26 07:50:24;;;;;;;12.47;8.17;;;7.80;1.00;;;;;;5016051;28;20477;-76
2022/12/26 07:52:50;;;;;;;15.70;8.63;;;7.80;1.00;;;;;;5016426;28;20377;-77
2022/12/26 07:55:16;;;;;;;18.67;9.33;;;7.80;1.00;;;;;;5015851;28;20761;-76
2022/12/26 07:57:42;;;;;;;15.33;9.37;;;7.90;1.00;;;;;;5015003;28;20485;-77
2022/12/26 08:00:08;;;;;;;21.20;9.80;;;7.80;1.00;;;;;;5016270;28;20830;-77
2022/12/26 08:02:34;;;;;;;16.10;8.10;;;7.90;1.00;;;;;;5016351;28;20255;-76
2022/12/26 08:05:00;;;;;;;14.17;8.70;;;7.90;1.00;;;;;;5015525;28;20566;-77
2022/12/26 08:07:25;;;;;;;17.53;9.40;;;7.90;1.00;;;;;;5015978;28;20226;-78
2022/12/26 08:09:51;;;;;;;18.77;10.53;;;7.90;1.00;;;;;;5015722;28;20674;-78
2022/12/26 08:12:20;;;;;;;14.70;9.90;;;7.90;1.00;;;;;;5016004;28;20414;-78
2022/12/26 08:14:46;;;;;;;11.60;8.40;;;7.90;1.00;;;;;;5015322;28;20207;-78
2022/12/26 08:17:12;;;;;;;14.70;8.20;;;7.90;1.00;;;;;;5016126;28;20395;-77
2022/12/26 08:19:38;;;;;;;15.03;10.60;;;8.00;1.00;;;;;;5014041;28;20487;-77
2022/12/26 08:22:04;;;;;;;16.40;10.10;;;8.00;1.00;;;;;;5015860;28;20981;-76
2022/12/26 08:24:30;;;;;;;15.93;9.90;;;8.00;1.00;;;;;;5015200;28;20433;-76
2022/12/26 08:26:56;;;;;;;16.90;8.60;;;8.00;1.00;;;;;;5015851;28;20431;-75
2022/12/26 08:29:21;;;;;;;17.00;10.00;;;8.00;1.00;;;;;;5015210;28;20219;-77
2022/12/26 08:31:47;;;;;;;18.80;10.03;;;8.00;1.00;;;;;;5015725;28;20196;-78
2022/12/26 08:34:13;;;;;;;21.40;9.57;;;8.00;1.00;;;;;;5015281;28;20260;-75
2022/12/26 08:36:39;;;;;;;14.50;10.33;;;8.00;1.00;;;;;;5015410;28;20641;-77
2022/12/26 08:39:04;;;;;;;16.57;9.70;;;8.10;1.00;;;;;;5015601;28;20565;-75
2022/12/26 08:41:30;;;;;;;16.57;9.37;;;8.10;1.00;;;;;;5015576;28;20399;-77
2022/12/26 08:43:56;;;;;;;16.63;9.30;;;8.10;1.00;;;;;;5014517;28;20196;-74
2022/12/26 08:46:22;;;;;;;19.47;9.87;;;8.10;1.00;;;;;;5014317;28;20231;-75
2022/12/26 08:48:48;;;;;;;16.30;10.17;;;8.10;1.00;;;;;;5015260;28;20660;-70
2022/12/26 08:51:17;;;;;;;18.30;10.43;;;8.20;1.00;;;;;;5015327;28;20938;-76
2022/12/26 08:53:43;;;;;;;14.83;10.50;;;8.20;1.00;;;;;;5015283;28;20476;-77
2022/12/26 08:56:14;;;;;;;18.43;10.17;;;8.20;1.00;;;;;;5014646;28;20391;-76
2022/12/26 08:58:40;;;;;;;19.60;11.10;;;8.20;1.00;;;;;;5015311;28;20404;-76
2022/12/26 09:01:13;;;;;;;15.17;9.73;;;8.20;1.00;;;;;;5015355;28;20399;-75
2022/12/26 09:03:40;;;;;;;17.27;10.53;;;8.20;1.00;;;;;;5015065;28;20403;-76
2022/12/26 09:06:06;;;;;;;17.97;11.40;;;8.20;1.00;;;;;;5013754;28;20404;-78
2022/12/26 09:08:33;;;;;;;15.73;9.80;;;8.20;1.00;;;;;;5015055;28;20457;-77
2022/12/26 09:11:09;;;;;;;19.60;10.70;;;8.30;1.00;;;;;;5014927;28;20967;-77
2022/12/26 09:13:35;;;;;;;18.30;10.00;;;8.30;1.00;;;;;;5014897;28;20370;-76
2022/12/26 09:16:05;;;;;;;19.70;10.83;;;8.30;1.00;;;;;;5013327;28;20469;-77
2022/12/26 09:18:31;;;;;;;19.50;11.20;;;8.30;1.00;;;;;;5014755;28;20403;-77
2022/12/26 09:21:02;;;;;;;16.93;11.17;;;8.40;1.00;;;;;;5014694;28;20407;-77
2022/12/26 09:23:29;;;;;;;20.57;11.33;;;8.40;1.00;;;;;;5013754;28;20434;-78
2022/12/26 09:25:54;;;;;;;15.50;10.37;;;8.40;1.00;;;;;;5013413;28;20431;-76
2022/12/26 09:28:20;;;;;;;18.80;10.33;;;8.40;1.00;;;;;;5014657;28;20415;-76
2022/12/26 09:30:46;;;;;;;18.50;11.57;;;8.50;1.00;;;;;;5013445;28;20192;-77
2022/12/26 09:33:11;;;;;;;18.07;9.83;;;8.50;1.00;;;;;;5014610;28;20408;-76
2022/12/26 09:35:41;;;;;;;15.53;10.63;;;8.50;1.00;;;;;;5013779;28;20185;-76
2022/12/26 09:38:06;;;;;;;14.77;9.70;;;8.50;1.00;;;;;;5014559;28;20176;-77
2022/12/26 09:40:49;;;;;;;15.73;9.00;;;8.50;1.00;;;;;;5014558;28;20413;-75
2022/12/26 09:43:49;;;;;;;20.47;10.17;;;8.50;1.00;;;;;;5014607;28;20166;-76
2022/12/26 09:46:44;;;;;;;14.37;9.90;;;8.60;1.00;;;;;;5013386;28;20417;-77
2022/12/26 09:49:09;;;;;;;22.70;11.43;;;8.50;1.00;;;;;;5013306;28;20503;-76
2022/12/26 09:51:39;;;;;;;16.10;10.10;;;8.60;1.00;;;;;;5014233;28;20550;-77
2022/12/26 09:54:08;;;;;;;18.17;11.87;;;8.70;1.00;;;;;;5013946;28;20184;-77
2022/12/26 09:56:37;;;;;;;18.47;10.50;;;8.70;1.00;;;;;;5013773;28;20380;-76
2022/12/26 09:59:17;;;;;;;17.97;11.87;;;8.70;1.00;;;;;;5014133;28;20690;-77
2022/12/26 10:01:43;;;;;;;20.70;12.20;;;8.80;1.00;;;;;;5013478;28;20386;-76
2022/12/26 10:04:21;;;;;;;17.97;11.30;;;8.80;1.00;;;;;;5013783;28;20428;-76
2022/12/26 10:06:56;;;;;;;18.97;11.70;;;8.80;1.00;;;;;;5013808;28;20414;-78
2022/12/26 10:09:36;;;;;;;14.57;10.73;;;8.80;1.00;;;;;;5014009;28;20434;-77
2022/12/26 10:12:27;;;;;;;18.50;11.83;;;8.90;1.00;;;;;;5013900;28;20544;-77
2022/12/26 10:15:01;;;;;;;18.10;11.50;;;8.90;1.00;;;;;;5012992;28;20759;-77
2022/12/26 10:17:56;;;;;;;20.10;12.70;;;8.90;1.00;;;;;;5013849;28;20377;-76
2022/12/26 10:20:33;;;;;;;20.20;12.00;;;8.90;1.00;;;;;;5013025;28;20387;-76
2022/12/26 10:23:22;;;;;;;19.17;12.73;;;8.90;1.00;;;;;;5013640;28;20474;-76
2022/12/26 10:26:10;;;;;;;21.33;12.20;;;8.90;1.00;;;;;;5012973;28;20420;-76
2022/12/26 10:28:58;;;;;;;16.80;13.03;;;8.90;1.00;;;;;;5013836;28;20844;-76
2022/12/26 10:31:49;;;;;;;22.77;11.30;;;8.90;1.00;;;;;;5012254;28;20459;-76
2022/12/26 10:34:27;;;;;;;21.50;13.07;;;9.00;1.00;;;;;;5013367;28;21067;-75
2022/12/26 10:37:03;;;;;;;22.20;12.67;;;9.10;1.00;;;;;;5013525;28;20399;-77
2022/12/26 10:39:39;;;;;;;18.23;10.07;;;9.10;1.00;;;;;;5012807;28;20905;-77
2022/12/26 10:42:20;;;;;;;16.63;11.57;;;9.10;1.00;;;;;;5011828;28;20987;-76
2022/12/26 10:44:46;;;;;;;18.60;11.23;;;9.10;1.00;;;;;;5012867;28;20434;-75
2022/12/26 10:47:27;;;;;;;15.80;10.87;;;9.20;1.00;;;;;;5013332;28;20554;-77
2022/12/26 10:49:53;;;;;;;17.40;11.13;;;9.10;1.00;;;;;;5013516;28;20193;-74
2022/12/26 10:52:26;;;;;;;21.63;12.13;;;9.10;1.00;;;;;;5013320;28;20790;-77
2022/12/26 10:54:55;;;;;;;19.33;11.50;;;9.10;1.00;;;;;;5012631;28;20478;-74
2022/12/26 10:57:23;;;;;;;20.13;12.30;;;9.20;1.00;;;;;;5012025;28;20471;-75
2022/12/26 10:59:51;;;;;;;22.13;12.00;;;9.20;1.00;;;;;;5012792;28;20449;-74
2022/12/26 11:02:23;;;;;;;17.03;11.07;;;9.30;1.00;;;;;;5013277;28;20412;-76
2022/12/26 11:04:59;;;;;;;19.73;12.50;;;9.30;1.00;;;;;;5012450;28;20824;-75
2022/12/26 11:07:29;;;;;;;20.60;12.17;;;9.40;1.00;;;;;;5013065;28;20459;-74
2022/12/26 11:09:57;;;;;;;19.63;12.90;;;9.40;1.00;;;;;;5013209;28;20435;-76
2022/12/26 11:12:31;;;;;;;18.13;11.37;;;9.40;1.00;;;;;;5013161;28;20420;-74
2022/12/26 11:15:00;;;;;;;19.17;12.70;;;9.40;1.00;;;;;;5011930;28;20896;-76
2022/12/26 11:17:32;;;;;;;18.90;10.33;;;9.40;1.00;;;;;;5011900;28;20480;-76
2022/12/26 11:20:13;;;;;;;14.30;10.13;;;9.40;1.00;;;;;;5011949;28;20419;-76
2022/12/26 11:22:39;;;;;;;12.37;9.00;;;9.40;1.00;;;;;;5013253;28;20426;-73
2022/12/26 11:25:17;;;;;;;17.30;11.30;;;9.30;1.00;;;;;;5011374;28;20488;-75
2022/12/26 11:27:46;;;;;;;15.87;10.23;;;9.30;1.00;;;;;;5011747;28;20435;-74
2022/12/26 11:30:18;;;;;;;23.73;12.87;;;9.30;1.00;;;;;;5012896;28;20503;-76
2022/12/26 11:32:48;;;;;;;22.23;11.40;;;9.30;1.00;;;;;;5013018;28;20418;-76
2022/12/26 11:35:22;;;;;;;16.33;11.00;;;9.30;1.00;;;;;;5011772;28;20907;-75
2022/12/26 11:37:56;;;;;;;18.30;11.90;;;9.30;1.00;;;;;;5012930;28;20764;-75
2022/12/26 11:40:31;;;;;;;16.97;10.97;;;9.30;1.00;;;;;;5011960;28;20425;-75
2022/12/26 11:42:59;;;;;;;23.43;11.73;;;9.30;1.00;;;;;;5012901;28;20408;-75
2022/12/26 11:45:30;;;;;;;16.63;10.80;;;9.40;1.00;;;;;;5011152;28;20436;-74
2022/12/26 11:47:59;;;;;;;16.40;10.13;;;9.40;1.00;;;;;;5012885;28;20911;-74
2022/12/26 11:50:28;;;;;;;17.17;10.93;;;9.40;1.00;;;;;;5011664;28;20801;-73
2022/12/26 11:52:57;;;;;;;16.07;10.00;;;9.30;1.00;;;;;;5012369;28;20485;-74
2022/12/26 11:55:23;;;;;;;13.97;10.23;;;9.40;1.00;;;;;;5015727;28;20424;-74
2022/12/26 11:57:56;;;;;;;20.10;9.67;;;9.30;1.00;;;;;;5016353;28;20424;-75
2022/12/26 12:00:23;;;;;;;18.83;10.60;;;9.20;1.00;;;;;;5032607;28;20460;-74
2022/12/26 12:02:49;;;;;;;15.40;11.87;;;9.30;1.00;;;;;;5037063;28;20434;-74
2022/12/26 12:05:31;;;;;;;16.63;9.73;;;9.30;1.00;;;;;;5030795;28;20977;-72
2022/12/26 12:08:45;;;;;;;14.73;10.57;;;9.20;1.00;;;;;;5035951;28;20410;-75
2022/12/26 12:11:53;;;;;;;17.07;9.70;;;9.20;1.00;;;;;;5033585;28;20967;-75
2022/12/26 12:14:50;;;;;;;14.90;9.40;;;9.20;1.00;;;;;;5034171;28;20531;-76
2022/12/26 12:17:34;;;;;;;14.97;10.03;;;9.20;1.00;;;;;;5038919;28;20528;-74
2022/12/26 12:20:28;;;;;;;11.63;8.40;;;9.20;1.00;;;;;;5035551;28;20402;-72
2022/12/26 12:23:14;;;;;;;18.30;10.90;;;9.10;1.00;;;;;;5034431;28;20429;-73
2022/12/26 12:25:50;;;;;;;19.60;9.80;;;9.20;1.00;;;;;;5034584;28;20434;-74
2022/12/26 12:28:40;;;;;;;13.13;9.60;;;9.10;1.00;;;;;;5015134;28;20494;-72
2022/12/26 12:31:09;;;;;;;13.80;9.97;;;9.10;1.00;;;;;;5028971;28;20553;-74
2022/12/26 12:34:07;;;;;;;11.80;8.17;;;9.10;1.00;;;;;;5035434;28;20425;-75
2022/12/26 12:36:53;;;;;;;18.53;9.30;;;9.10;1.00;;;;;;5033192;28;20833;-72
2022/12/26 12:39:34;;;;;;;15.10;8.60;;;9.10;1.00;;;;;;5035531;28;20476;-76
2022/12/26 12:42:31;;;;;;;14.87;9.37;;;9.10;1.00;;;;;;5034149;28;20418;-76
2022/12/26 12:45:25;;;;;;;12.20;8.87;;;9.10;1.00;;;;;;5032265;28;20483;-74
2022/12/26 12:47:51;;;;;;;10.93;8.00;;;9.10;1.00;;;;;;5015504;28;20406;-76
2022/12/26 12:50:20;;;;;;;16.20;6.93;;;9.00;1.00;;;;;;5014187;28;20788;-75
2022/12/26 12:52:53;;;;;;;9.60;6.40;;;8.90;1.00;;;;;;5015368;28;20161;-76
2022/12/26 12:55:31;;;;;;;11.00;8.00;;;8.90;1.00;;;;;;5028463;28;20450;-76
2022/12/26 12:58:07;;;;;;;7.83;6.50;;;8.90;1.00;;;;;;5035096;28;20445;-73
2022/12/26 13:01:11;;;;;;;8.30;7.40;;;8.90;1.00;;;;;;5033046;28;20438;-73
2022/12/26 13:03:46;;;;;;;8.93;6.30;;;8.90;1.00;;;;;;5043105;28;20877;-74
2022/12/26 13:06:20;;;;;;;8.50;5.90;;;8.90;1.00;;;;;;5033817;28;20921;-72
2022/12/26 13:08:53;;;;;;;7.07;6.37;;;8.90;1.00;;;;;;5033106;28;20801;-73
2022/12/26 13:11:33;;;;;;;10.33;8.03;;;8.80;1.00;;;;;;5033962;28;20454;-73
2022/12/26 13:14:20;;;;;;;10.10;7.10;;;8.80;1.00;;;;;;5033111;28;21053;-72
2022/12/26 13:16:53;;;;;;;7.37;6.00;;;8.80;1.00;;;;;;5033167;28;20957;-75
2022/12/26 13:19:29;;;;;;;5.93;3.77;;;8.70;1.00;;;;;;5034153;28;20402;-75
2022/12/26 13:22:03;;;;;;;4.63;3.23;;;8.70;1.00;;;;;;5034777;28;20946;-75
2022/12/26 13:24:45;;;;;;;4.07;3.40;;;8.60;99.90;;;;;;5033516;28;20430;-75
2022/12/26 13:27:23;;;;;;;4.83;3.27;;;8.50;99.90;;;;;;5032973;28;20465;-75
2022/12/26 13:29:48;;;;;;;2.57;1.80;;;8.40;99.90;;;;;;5013669;28;20441;-74
2022/12/26 13:32:34;;;;;;;2.63;2.30;;;8.40;99.90;;;;;;5013306;28;20450;-74
2022/12/26 13:35:03;;;;;;;14.43;3.13;;;8.30;99.90;;;;;;5013763;28;20195;-75
2022/12/26 13:37:37;;;;;;;3.20;2.30;;;8.30;99.90;;;;;;5014073;28;20411;-72
2022/12/26 13:40:12;;;;;;;2.30;2.10;;;8.30;99.90;;;;;;5014549;28;20433;-72
2022/12/26 13:45:42;;;;;;;6.17;2.50;;;8.10;99.90;;;;;;5013715;28;20419;-73
2022/12/26 13:48:31;;;;;;;2.60;1.50;;;8.00;99.90;;;;;;5014418;28;20452;-73
2022/12/26 13:51:00;;;;;;;5.00;2.97;;;7.90;99.90;;;;;;5019254;28;20875;-72
2022/12/26 13:53:33;;;;;;;5.77;2.10;;;7.80;99.90;;;;;;5014307;28;20884;-74
2022/12/26 13:56:09;;;;;;;5.20;2.80;;;7.80;99.90;;;;;;5013498;28;20458;-76
2022/12/26 13:58:53;;;;;;;5.17;2.73;;;7.80;99.90;;;;;;5013828;28;20410;-75
2022/12/26 14:01:28;;;;;;;10.70;2.73;;;7.70;99.90;;;;;;5014251;28;20418;-72
2022/12/26 14:04:01;;;;;;;9.93;3.10;;;7.70;99.90;;;;;;5014058;28;20426;-75
2022/12/26 14:07:05;;;;;;;3.50;3.20;;;7.70;99.90;;;;;;5013490;28;20764;-77
2022/12/26 14:09:54;;;;;;;6.13;2.77;;;7.50;99.90;;;;;;5013997;28;20452;-77
2022/12/26 14:12:31;;;;;;;7.40;3.03;;;7.20;99.90;;;;;;5012596;28;20534;-74
2022/12/26 14:15:07;;;;;;;4.80;1.87;;;7.10;99.90;;;;;;5013057;28;20430;-76
2022/12/26 14:17:33;;;;;;;2.37;2.10;;;7.00;99.90;;;;;;5012620;28;20414;-75
2022/12/26 14:20:07;;;;;;;3.83;2.30;;;7.00;99.90;;;;;;5013922;28;20403;-72
2022/12/26 14:22:32;;;;;;;8.20;2.87;;;6.90;99.90;;;;;;5013842;28;20238;-73
2022/12/26 14:25:33;;;;;;;7.73;3.63;;;6.80;99.90;;;;;;5011773;28;20939;-73
2022/12/26 14:28:11;;;;;;;8.13;1.90;;;6.80;99.90;;;;;;5013917;28;20159;-75
2022/12/26 14:30:52;;;;;;;4.50;2.27;;;6.80;99.90;;;;;;5013700;28;20465;-73
2022/12/26 14:33:23;;;;;;;5.43;2.90;;;6.70;99.90;;;;;;5013595;28;20395;-72
2022/12/26 14:36:10;;;;;;;2.03;1.87;;;6.70;99.90;;;;;;5012944;28;20419;-73
2022/12/26 14:38:44;;;;;;;3.60;2.50;;;6.60;99.90;;;;;;5012133;28;20411;-75
2022/12/26 14:44:28;;;;;;;3.17;2.73;;;6.70;99.90;;;;;;5031186;28;20449;-74
2022/12/26 14:46:58;;;;;;;5.20;2.77;;;6.60;99.90;;;;;;5042938;28;21016;-73
2022/12/26 14:49:37;;;;;;;3.97;2.30;;;6.60;99.90;;;;;;5042044;28;20774;-73
2022/12/26 14:52:24;;;;;;;5.70;2.30;;;6.50;99.90;;;;;;5033044;28;20556;-73
2022/12/26 14:54:54;;;;;;;5.27;2.43;;;6.50;99.90;;;;;;5032034;28;20468;-73
2022/12/26 14:57:45;;;;;;;5.70;2.90;;;6.50;99.90;;;;;;5034304;28;20540;-67
2022/12/26 15:00:20;;;;;;;6.73;3.27;;;6.50;99.90;;;;;;5030609;28;20517;-70
2022/12/26 15:03:10;;;;;;;9.27;3.40;;;6.50;99.90;;;;;;5033025;28;20400;-72
2022/12/26 15:05:38;;;;;;;7.27;2.00;;;6.50;99.90;;;;;;5030712;28;20437;-73
2022/12/26 15:08:33;;;;;;;6.93;2.70;;;6.30;99.90;;;;;;5029761;28;20452;-72
2022/12/26 15:11:13;;;;;;;9.13;2.70;;;6.30;99.90;;;;;;5030269;28;20565;-73
2022/12/26 15:14:15;;;;;;;4.80;3.07;;;6.30;99.90;;;;;;5028559;28;20407;-73
2022/12/26 15:17:18;;;;;;;8.93;2.50;;;6.30;99.90;;;;;;5023763;28;20420;-71
2022/12/26 15:20:09;;;;;;;5.10;2.40;;;6.20;99.90;;;;;;5032845;28;20401;-70
2022/12/26 15:23:12;;;;;;;11.33;3.37;;;6.00;99.90;;;;;;5031021;28;20426;-73
2022/12/26 15:25:50;;;;;;;6.60;2.70;;;6.00;99.90;;;;;;5030127;28;20443;-69
2022/12/26 15:28:39;;;;;;;12.57;4.33;;;6.00;99.90;;;;;;5035004;28;20404;-70
2022/12/26 15:31:18;;;;;;;7.73;2.60;;;5.90;99.90;;;;;;5035062;28;20577;-72
2022/12/26 15:34:11;;;;;;;3.77;2.60;;;6.00;99.90;;;;;;5036522;28;20412;-70